createdAt,value
2023-02-16T00:01:02.182Z,81.67
2023-02-16T00:03:28.980Z,81.87
2023-02-16T00:05:55.793Z,82.40
2023-02-16T00:08:22.466Z,82.14
2023-02-16T00:10:49.273Z,82.10
2023-02-16T00:13:24.996Z,81.82
2023-02-16T00:15:51.737Z,82.46
2023-02-16T00:18:20.904Z,82.70
2023-02-16T00:20:49.938Z,82.37
2023-02-16T00:23:17.060Z,82.99
2023-02-16T00:25:43.792Z,82.80
2023-02-16T00:28:18.066Z,83.41
2023-02-16T00:30:45.282Z,84.65
2023-02-16T00:33:18.811Z,84.80
2023-02-16T00:35:45.850Z,84.71
2023-02-16T00:38:13.616Z,85.37
2023-02-16T00:40:41.828Z,87.00
2023-02-16T00:43:27.878Z,86.60
2023-02-16T00:45:55.751Z,85.85
2023-02-16T00:48:23.508Z,86.94
2023-02-16T00:50:53.325Z,87.08
2023-02-16T00:53:20.042Z,87.89
2023-02-16T00:55:47.034Z,86.70
2023-02-16T00:58:25.426Z,86.30
2023-02-16T01:00:55.469Z,86.86
2023-02-16T01:03:28.899Z,86.00
2023-02-16T01:05:56.944Z,84.53
2023-02-16T01:08:23.549Z,84.65
2023-02-16T01:10:51.532Z,85.13
2023-02-16T01:13:18.560Z,85.45
2023-02-16T01:15:45.742Z,85.19
2023-02-16T01:18:15.297Z,85.76
2023-02-16T01:20:43.478Z,85.98
2023-02-16T01:23:10.085Z,84.97
2023-02-16T01:25:37.949Z,84.88
2023-02-16T01:28:18.467Z,84.34
2023-02-16T01:30:45.354Z,84.20
2023-02-16T01:33:12.010Z,84.87
2023-02-16T01:35:39.069Z,86.68
2023-02-16T01:38:05.793Z,85.84
2023-02-16T01:40:35.538Z,85.20
2023-02-16T01:43:20.362Z,84.41
2023-02-16T01:45:55.370Z,83.67
2023-02-16T01:48:26.774Z,83.34
2023-02-16T01:51:03.091Z,83.84
2023-02-16T01:53:29.970Z,86.84
2023-02-16T01:56:03.408Z,86.50
2023-02-16T01:58:36.017Z,85.01
2023-02-16T02:01:02.887Z,83.97
2023-02-16T02:03:35.175Z,83.14
2023-02-16T02:06:02.399Z,83.59
2023-02-16T02:08:35.068Z,83.36
2023-02-16T02:11:09.705Z,84.05
2023-02-16T02:14:01.808Z,84.54
2023-02-16T02:16:29.244Z,84.82
2023-02-16T02:18:56.179Z,83.62
2023-02-16T02:21:26.044Z,83.83
2023-02-16T02:24:51.419Z,84.18
2023-02-16T02:27:23.992Z,84.27
2023-02-16T02:29:59.995Z,85.46
2023-02-16T02:32:48.538Z,84.85
2023-02-16T02:35:26.720Z,84.32
2023-02-16T02:37:56.169Z,84.65
2023-02-16T02:40:56.513Z,83.45
2023-02-16T02:43:34.625Z,83.95
2023-02-16T02:46:08.614Z,84.18
2023-02-16T02:48:35.451Z,84.35
2023-02-16T02:51:10.518Z,84.19
2023-02-16T02:53:44.292Z,83.48
2023-02-16T02:56:13.890Z,82.73
2023-02-16T02:58:41.149Z,83.04
2023-02-16T03:01:09.335Z,82.66
2023-02-16T03:03:44.181Z,83.37
2023-02-16T03:06:26.475Z,83.63
2023-02-16T03:09:02.730Z,84.93
2023-02-16T03:11:29.563Z,86.63
2023-02-16T03:14:00.669Z,86.33
2023-02-16T03:16:34.560Z,85.45
2023-02-16T03:19:02.971Z,85.09
2023-02-16T03:21:29.920Z,83.89
2023-02-16T03:23:58.269Z,83.72
2023-02-16T03:26:26.803Z,83.98
2023-02-16T03:28:53.643Z,83.25
2023-02-16T03:31:24.031Z,83.14
2023-02-16T03:33:51.963Z,85.04
2023-02-16T03:36:18.673Z,84.61
2023-02-16T03:38:45.667Z,83.46
2023-02-16T03:41:12.278Z,83.66
2023-02-16T03:43:38.965Z,82.96
2023-02-16T03:46:05.887Z,82.69
2023-02-16T03:48:32.540Z,83.13
2023-02-16T03:50:59.131Z,82.96
2023-02-16T03:53:25.908Z,82.20
2023-02-16T03:55:52.519Z,82.93
2023-02-16T03:58:21.778Z,83.55
2023-02-16T04:00:48.581Z,83.72
2023-02-16T04:03:15.566Z,82.87
2023-02-16T04:05:42.256Z,82.49
2023-02-16T04:08:10.075Z,83.16
2023-02-16T04:10:37.742Z,84.20
2023-02-16T04:13:04.835Z,84.25
2023-02-16T04:15:32.184Z,83.03
2023-02-16T04:17:59.301Z,82.56
2023-02-16T04:20:29.345Z,82.11
2023-02-16T04:22:56.377Z,82.09
2023-02-16T04:25:23.228Z,81.99
2023-02-16T04:27:50.645Z,82.34
2023-02-16T04:30:19.615Z,82.65
2023-02-16T04:32:46.316Z,82.75
2023-02-16T04:35:13.153Z,81.63
2023-02-16T04:37:39.931Z,82.79
2023-02-16T04:40:08.462Z,83.94
2023-02-16T04:42:35.294Z,84.11
2023-02-16T04:45:02.013Z,84.03
2023-02-16T04:47:28.779Z,82.58
2023-02-16T04:49:55.380Z,83.57
2023-02-16T04:52:22.207Z,83.80
2023-02-16T04:54:48.792Z,84.18
2023-02-16T04:57:16.107Z,85.07
2023-02-16T04:59:43.494Z,85.41
2023-02-16T05:02:10.156Z,85.19
2023-02-16T05:04:36.967Z,86.01
2023-02-16T05:07:03.875Z,85.49
2023-02-16T05:09:30.464Z,85.59
2023-02-16T05:11:57.307Z,85.31
2023-02-16T05:14:29.756Z,84.53
2023-02-16T05:16:56.425Z,84.96
2023-02-16T05:19:23.015Z,84.97
2023-02-16T05:21:50.221Z,85.31
2023-02-16T05:24:16.802Z,85.58
2023-02-16T05:26:43.501Z,84.92
2023-02-16T05:29:11.060Z,84.77
2023-02-16T05:31:37.870Z,86.92
2023-02-16T05:34:04.603Z,86.88
2023-02-16T05:36:31.303Z,87.55
2023-02-16T05:38:57.962Z,86.85
2023-02-16T05:41:24.643Z,87.85
2023-02-16T05:43:53.011Z,86.74
2023-02-16T05:46:21.406Z,86.68
2023-02-16T05:48:48.562Z,87.24
2023-02-16T05:51:15.290Z,86.95
2023-02-16T05:53:42.073Z,87.04
2023-02-16T05:56:09.449Z,86.90
2023-02-16T05:58:36.661Z,86.06
2023-02-16T06:01:04.149Z,84.88
2023-02-16T06:03:31.123Z,84.63
2023-02-16T06:06:00.705Z,84.22
2023-02-16T06:08:28.081Z,83.29
2023-02-16T06:10:55.415Z,82.47
2023-02-16T06:13:23.554Z,82.58
2023-02-16T06:15:55.747Z,82.58
2023-02-16T06:18:24.563Z,84.56
2023-02-16T06:20:51.879Z,85.87
2023-02-16T06:23:18.673Z,86.00
2023-02-16T06:25:49.310Z,85.08
2023-02-16T06:28:16.063Z,84.40
2023-02-16T06:30:42.789Z,84.27
2023-02-16T06:33:09.594Z,85.54
2023-02-16T06:35:36.167Z,85.24
2023-02-16T06:38:02.873Z,85.31
2023-02-16T06:40:29.608Z,86.92
2023-02-16T06:42:56.288Z,86.81
2023-02-16T06:45:22.894Z,86.23
2023-02-16T06:47:49.597Z,86.25
2023-02-16T06:50:16.212Z,86.90
2023-02-16T06:52:43.005Z,86.96
2023-02-16T06:55:09.758Z,87.86
2023-02-16T06:57:36.426Z,86.82
2023-02-16T07:00:04.931Z,86.88
2023-02-16T07:02:31.744Z,86.47
2023-02-16T07:04:58.377Z,86.33
2023-02-16T07:07:25.013Z,86.30
2023-02-16T07:09:51.683Z,85.50
2023-02-16T07:12:18.415Z,85.54
2023-02-16T07:14:44.999Z,85.52
2023-02-16T07:17:11.721Z,85.63
2023-02-16T07:19:38.320Z,86.62
2023-02-16T07:22:04.960Z,88.52
2023-02-16T07:24:31.602Z,89.38
2023-02-16T07:26:58.323Z,89.16
2023-02-16T07:29:24.905Z,88.70
2023-02-16T07:31:52.070Z,89.47
2023-02-16T07:34:20.821Z,88.33
2023-02-16T07:36:47.642Z,87.78
2023-02-16T07:39:14.330Z,87.71
2023-02-16T07:41:40.995Z,87.35
2023-02-16T07:44:08.373Z,86.93
2023-02-16T07:46:35.114Z,86.95
2023-02-16T07:49:01.759Z,87.61
2023-02-16T07:51:30.797Z,87.17
2023-02-16T07:53:59.651Z,87.28
2023-02-16T07:56:28.932Z,87.51
2023-02-16T07:58:56.471Z,86.32
2023-02-16T08:01:24.161Z,84.87
2023-02-16T08:03:51.773Z,84.68
2023-02-16T08:06:18.945Z,84.43
2023-02-16T08:08:46.377Z,84.22
2023-02-16T08:11:19.098Z,84.31
2023-02-16T08:13:46.728Z,84.47
2023-02-16T08:16:20.518Z,83.68
2023-02-16T08:18:47.757Z,84.30
2023-02-16T08:21:20.987Z,83.29
2023-02-16T08:23:56.756Z,82.61
2023-02-16T08:26:25.706Z,81.91
2023-02-16T08:28:52.525Z,80.30
2023-02-16T08:31:21.967Z,79.94
2023-02-16T08:33:50.060Z,80.34
2023-02-16T08:36:24.602Z,80.25
2023-02-16T08:38:53.334Z,80.18
2023-02-16T08:41:21.713Z,79.77
2023-02-16T08:43:49.610Z,79.51
2023-02-16T08:46:17.134Z,79.28
2023-02-16T08:48:44.157Z,79.15
2023-02-16T08:51:19.380Z,79.92
2023-02-16T08:53:47.241Z,80.84
2023-02-16T08:56:14.846Z,80.13
2023-02-16T08:58:41.536Z,80.26
2023-02-16T09:01:09.136Z,79.80
2023-02-16T09:03:37.306Z,80.51
2023-02-16T09:06:05.949Z,79.54
2023-02-16T09:08:33.281Z,79.33
2023-02-16T09:11:04.693Z,79.05
2023-02-16T09:13:34.346Z,77.97
2023-02-16T09:16:10.769Z,77.79
2023-02-16T09:18:38.866Z,77.67
2023-02-16T09:21:08.229Z,77.62
2023-02-16T09:23:34.886Z,76.92
2023-02-16T09:26:01.707Z,77.07
2023-02-16T09:28:29.783Z,77.21
2023-02-16T09:30:56.746Z,77.20
2023-02-16T09:33:23.429Z,76.37
2023-02-16T09:35:50.039Z,76.85
2023-02-16T09:38:16.739Z,75.88
2023-02-16T09:40:44.822Z,75.68
2023-02-16T09:43:32.102Z,74.88
2023-02-16T09:45:59.192Z,76.75
2023-02-16T09:48:42.813Z,74.82
2023-02-16T09:54:37.425Z,75.22
2023-02-16T09:57:27.051Z,74.41
2023-02-16T10:00:06.101Z,74.38
2023-02-16T10:02:44.842Z,73.61
2023-02-16T10:05:20.431Z,73.29
2023-02-16T10:08:00.525Z,73.51
2023-02-16T10:10:33.204Z,72.13
2023-02-16T10:13:12.331Z,72.62
2023-02-16T10:15:41.468Z,71.82
2023-02-16T10:18:18.750Z,71.61
2023-02-16T10:20:48.660Z,71.32
2023-02-16T10:24:01.846Z,71.08
2023-02-16T10:26:32.377Z,70.91
2023-02-16T10:29:06.396Z,72.04
2023-02-16T10:31:48.730Z,72.22
2023-02-16T10:34:39.936Z,71.27
2023-02-16T10:37:34.095Z,71.32
2023-02-16T10:40:35.736Z,72.31
2023-02-16T10:43:21.327Z,72.53
2023-02-16T10:45:52.413Z,72.01
2023-02-16T10:48:21.238Z,71.31
2023-02-16T10:51:08.568Z,70.61
2023-02-16T10:53:42.579Z,70.48
2023-02-16T10:56:24.218Z,70.26
2023-02-16T10:58:51.071Z,70.30
2023-02-16T11:01:28.999Z,70.31
2023-02-16T11:03:55.770Z,70.45
2023-02-16T11:06:24.266Z,69.36
2023-02-16T11:08:56.269Z,69.27
2023-02-16T11:11:38.979Z,69.92
2023-02-16T11:14:09.128Z,69.66
2023-02-16T11:16:35.996Z,69.83
2023-02-16T11:19:09.145Z,71.09
2023-02-16T11:21:46.073Z,69.29
2023-02-16T11:24:38.557Z,70.28
2023-02-16T11:27:05.390Z,70.72
2023-02-16T11:29:33.036Z,69.38
2023-02-16T11:32:04.996Z,70.23
2023-02-16T11:34:39.360Z,68.92
2023-02-16T11:37:33.756Z,67.12
2023-02-16T11:40:26.225Z,68.95
2023-02-16T11:42:56.123Z,67.91
2023-02-16T11:45:34.579Z,68.33
2023-02-16T11:48:05.721Z,69.89
2023-02-16T11:50:35.283Z,69.47
2023-02-16T11:53:10.850Z,69.26
2023-02-16T11:55:46.059Z,67.36
2023-02-16T11:58:20.163Z,67.39
2023-02-16T12:01:09.296Z,66.53
2023-02-16T12:03:50.389Z,67.25
2023-02-16T12:06:30.486Z,67.56
2023-02-16T12:09:24.874Z,67.39
2023-02-16T12:12:00.929Z,67.42
2023-02-16T12:14:36.778Z,67.64
2023-02-16T12:17:05.195Z,67.48
2023-02-16T12:19:52.176Z,67.61
2023-02-16T12:22:40.082Z,67.67
2023-02-16T12:25:26.520Z,67.31
2023-02-16T12:28:06.552Z,65.49
2023-02-16T12:30:38.965Z,65.90
2023-02-16T12:33:18.608Z,66.55
2023-02-16T12:36:01.011Z,66.42
2023-02-16T12:38:42.049Z,66.19
2023-02-16T12:41:11.865Z,66.68
2023-02-16T12:43:43.855Z,66.18
2023-02-16T12:46:28.252Z,66.89
2023-02-16T12:48:55.326Z,65.65
2023-02-16T12:51:27.974Z,66.09
2023-02-16T12:54:25.288Z,65.45
2023-02-16T12:57:01.823Z,65.48
2023-02-16T12:59:49.081Z,65.68
2023-02-16T13:02:27.353Z,66.38
2023-02-16T13:05:27.159Z,66.74
2023-02-16T13:08:02.304Z,65.43
2023-02-16T13:11:09.319Z,65.62
2023-02-16T13:13:37.612Z,65.08
2023-02-16T13:16:28.714Z,64.17
2023-02-16T13:18:56.085Z,64.84
2023-02-16T13:21:50.459Z,64.29
2023-02-16T13:24:50.305Z,64.60
2023-02-16T13:27:50.094Z,65.97
2023-02-16T13:30:49.105Z,65.62
2023-02-16T13:33:26.308Z,63.67
2023-02-16T13:35:58.968Z,64.95
2023-02-16T13:38:53.541Z,65.49
2023-02-16T13:41:41.716Z,65.24
2023-02-16T13:44:14.698Z,64.46
2023-02-16T13:46:48.439Z,64.33
2023-02-16T13:49:37.880Z,64.04
2023-02-16T13:52:05.830Z,65.88
2023-02-16T13:54:39.539Z,64.54
2023-02-16T13:57:12.094Z,65.37
2023-02-16T13:59:39.212Z,66.41
2023-02-16T14:02:18.573Z,66.49
2023-02-16T14:04:48.323Z,67.64
2023-02-16T14:07:17.793Z,66.63
2023-02-16T14:09:50.344Z,67.04
2023-02-16T14:12:20.319Z,67.27
2023-02-16T14:14:57.581Z,67.17
2023-02-16T14:17:33.389Z,67.14
2023-02-16T14:20:04.440Z,68.11
2023-02-16T14:22:43.437Z,66.83
2023-02-16T14:25:22.354Z,68.09
2023-02-16T14:27:53.787Z,68.04
2023-02-16T14:30:42.277Z,67.79
2023-02-16T14:33:12.173Z,68.20
2023-02-16T14:36:04.060Z,67.07
2023-02-16T14:38:41.811Z,67.28
2023-02-16T14:41:34.536Z,67.41
2023-02-16T14:44:04.212Z,67.93
2023-02-16T14:46:57.996Z,67.04
2023-02-16T14:49:27.634Z,68.25
2023-02-16T14:52:56.148Z,68.21
2023-02-16T14:56:00.992Z,67.33
2023-02-16T14:58:46.418Z,67.17
2023-02-16T15:01:16.335Z,67.66
2023-02-16T15:03:48.343Z,67.94
2023-02-16T15:06:31.220Z,65.93
2023-02-16T15:09:01.099Z,66.20
2023-02-16T15:11:48.946Z,67.13
2023-02-16T15:14:15.967Z,67.10
2023-02-16T15:16:42.654Z,67.11
2023-02-16T15:19:23.058Z,66.69
2023-02-16T15:22:27.326Z,67.31
2023-02-16T15:24:55.570Z,66.57
2023-02-16T15:27:23.383Z,67.72
2023-02-16T15:30:22.458Z,66.62
2023-02-16T15:32:52.068Z,66.99
2023-02-16T15:35:33.887Z,66.52
2023-02-16T15:38:07.909Z,66.72
2023-02-16T15:40:35.546Z,67.48
2023-02-16T15:43:22.326Z,67.11
2023-02-16T15:45:51.531Z,67.05
2023-02-16T15:48:35.269Z,67.30
2023-02-16T15:51:08.034Z,67.50
2023-02-16T15:53:51.532Z,66.41
2023-02-16T15:56:24.013Z,66.75
2023-02-16T15:58:51.104Z,67.59
2023-02-16T16:01:32.051Z,67.30
2023-02-16T16:04:01.758Z,67.12
2023-02-16T16:06:34.433Z,68.15
2023-02-16T16:09:02.137Z,68.22
2023-02-16T16:11:29.278Z,68.08
2023-02-16T16:13:56.080Z,68.24
2023-02-16T16:16:22.760Z,68.18
2023-02-16T16:18:52.856Z,69.54
2023-02-16T16:21:23.621Z,69.65
2023-02-16T16:24:10.368Z,69.33
2023-02-16T16:26:58.579Z,68.93
2023-02-16T16:29:29.928Z,68.81
2023-02-16T16:31:56.786Z,67.78
2023-02-16T16:34:32.702Z,68.70
2023-02-16T16:37:00.597Z,68.27
2023-02-16T16:39:34.046Z,69.00
2023-02-16T16:42:00.765Z,69.38
2023-02-16T16:44:43.761Z,69.65
2023-02-16T16:47:20.447Z,70.03
2023-02-16T16:49:51.962Z,70.25
2023-02-16T16:52:33.482Z,70.05
2023-02-16T16:55:14.696Z,70.25
2023-02-16T16:57:41.421Z,70.18
2023-02-16T17:00:09.124Z,71.05
2023-02-16T17:02:35.875Z,71.65
2023-02-16T17:05:03.068Z,71.67
2023-02-16T17:07:29.755Z,71.82
2023-02-16T17:09:56.408Z,72.47
2023-02-16T17:12:24.897Z,71.96
2023-02-16T17:14:52.024Z,71.84
2023-02-16T17:17:19.077Z,71.95
2023-02-16T17:19:45.751Z,72.16
2023-02-16T17:22:14.623Z,71.77
2023-02-16T17:24:41.335Z,72.20
2023-02-16T17:27:08.490Z,72.59
2023-02-16T17:29:35.153Z,72.23
2023-02-16T17:32:02.990Z,71.51
2023-02-16T17:34:29.626Z,71.81
2023-02-16T17:36:57.459Z,72.07
2023-02-16T17:39:24.132Z,71.94
2023-02-16T17:41:50.905Z,71.46
2023-02-16T17:44:17.931Z,70.32
2023-02-16T17:46:45.667Z,70.34
2023-02-16T17:49:13.193Z,70.45
2023-02-16T17:51:39.938Z,70.40
2023-02-16T17:54:07.716Z,71.01
2023-02-16T17:56:35.744Z,70.73
2023-02-16T17:59:03.113Z,70.07
2023-02-16T18:01:30.277Z,70.29
2023-02-16T18:03:56.914Z,70.31
2023-02-16T18:06:23.861Z,70.18
2023-02-16T18:08:50.974Z,71.11
2023-02-16T18:11:19.051Z,71.66
2023-02-16T18:13:45.666Z,70.92
2023-02-16T18:16:18.167Z,73.32
2023-02-16T18:18:45.647Z,73.48
2023-02-16T18:21:12.245Z,72.35
2023-02-16T18:23:39.885Z,71.26
2023-02-16T18:26:07.414Z,70.63
2023-02-16T18:28:34.918Z,71.05
2023-02-16T18:31:05.131Z,70.93
2023-02-16T18:33:31.864Z,71.71
2023-02-16T18:35:58.474Z,72.56
2023-02-16T18:38:25.331Z,71.65
2023-02-16T18:40:53.719Z,72.14
2023-02-16T18:43:21.345Z,71.95
2023-02-16T18:45:48.254Z,72.98
2023-02-16T18:48:15.046Z,72.80
2023-02-16T18:50:41.739Z,72.47
2023-02-16T18:53:08.967Z,71.28
2023-02-16T18:55:35.603Z,70.94
2023-02-16T18:58:07.322Z,70.69
2023-02-16T19:00:35.381Z,70.02
2023-02-16T19:03:02.101Z,71.20
2023-02-16T19:05:28.831Z,70.89
2023-02-16T19:07:55.479Z,71.54
2023-02-16T19:10:22.309Z,71.35
2023-02-16T19:12:48.927Z,71.68
2023-02-16T19:15:16.209Z,71.33
2023-02-16T19:17:43.234Z,71.69
2023-02-16T19:20:10.552Z,71.67
2023-02-16T19:22:39.025Z,72.08
2023-02-16T19:25:07.831Z,72.37
2023-02-16T19:27:34.781Z,73.04
2023-02-16T19:30:02.178Z,73.41
2023-02-16T19:32:32.008Z,73.24
2023-02-16T19:35:01.318Z,74.21
2023-02-16T19:37:37.297Z,74.16
2023-02-16T19:40:10.001Z,74.59
2023-02-16T19:42:46.304Z,74.07
2023-02-16T19:45:21.241Z,74.55
2023-02-16T19:47:53.234Z,75.21
2023-02-16T19:50:26.036Z,75.00
2023-02-16T19:52:57.886Z,75.40
2023-02-16T19:55:25.080Z,74.64
2023-02-16T19:57:53.392Z,74.75
2023-02-16T20:00:26.634Z,74.47
2023-02-16T20:02:58.696Z,74.71
2023-02-16T20:05:47.476Z,74.36
2023-02-16T20:08:17.064Z,75.99
2023-02-16T20:10:44.413Z,75.66
2023-02-16T20:13:12.248Z,75.58
2023-02-16T20:15:38.823Z,75.62
2023-02-16T20:18:06.594Z,74.89
2023-02-16T20:20:34.315Z,74.64
2023-02-16T20:23:00.981Z,75.37
2023-02-16T20:25:27.601Z,75.01
2023-02-16T20:27:56.505Z,75.56
2023-02-16T20:30:23.370Z,75.69
2023-02-16T20:32:50.720Z,76.33
2023-02-16T20:35:17.662Z,76.36
2023-02-16T20:37:44.313Z,77.20
2023-02-16T20:40:11.483Z,77.15
2023-02-16T20:42:38.246Z,77.11
2023-02-16T20:45:05.230Z,76.62
2023-02-16T20:47:32.024Z,77.79
2023-02-16T20:49:59.969Z,76.40
2023-02-16T20:52:27.642Z,76.42
2023-02-16T20:54:54.236Z,76.75
2023-02-16T20:57:26.725Z,76.74
2023-02-16T20:59:55.244Z,77.06
2023-02-16T21:02:22.728Z,76.91
2023-02-16T21:04:49.487Z,76.37
2023-02-16T21:07:16.097Z,76.48
2023-02-16T21:09:44.045Z,76.85
2023-02-16T21:12:10.657Z,76.08
2023-02-16T21:14:37.720Z,76.20
2023-02-16T21:17:04.470Z,76.93
2023-02-16T21:19:31.193Z,78.68
2023-02-16T21:21:57.861Z,78.29
2023-02-16T21:24:24.867Z,78.08
2023-02-16T21:26:51.470Z,77.26
2023-02-16T21:29:18.155Z,77.01
2023-02-16T21:31:44.848Z,76.74
2023-02-16T21:34:11.742Z,76.48
2023-02-16T21:36:38.356Z,76.30
2023-02-16T21:39:05.579Z,76.85
2023-02-16T21:41:32.725Z,76.50
2023-02-16T21:44:09.102Z,75.98
2023-02-16T21:46:47.260Z,76.05
2023-02-16T21:49:16.925Z,75.62
2023-02-16T21:51:44.406Z,76.13
2023-02-16T21:54:14.430Z,76.35
2023-02-16T21:56:49.367Z,77.63
2023-02-16T21:59:18.047Z,77.76
2023-02-16T22:01:50.250Z,77.76
2023-02-16T22:04:19.841Z,78.19
2023-02-16T22:06:48.949Z,77.48
2023-02-16T22:09:18.640Z,77.54
2023-02-16T22:11:46.472Z,76.93
2023-02-16T22:14:13.288Z,77.13
2023-02-16T22:16:40.681Z,78.05
2023-02-16T22:19:11.148Z,77.54
2023-02-16T22:21:39.855Z,77.79
2023-02-16T22:24:07.985Z,76.78
2023-02-16T22:26:35.656Z,76.94
2023-02-16T22:29:07.216Z,77.47
2023-02-16T22:31:34.865Z,77.65
2023-02-16T22:34:13.201Z,77.75
2023-02-16T22:36:39.995Z,77.63
2023-02-16T22:39:07.165Z,77.82
2023-02-16T22:41:35.015Z,78.85
2023-02-16T22:44:01.689Z,79.31
2023-02-16T22:46:29.882Z,80.13
2023-02-16T22:48:58.207Z,80.99
2023-02-16T22:51:26.451Z,81.02
2023-02-16T22:53:53.103Z,80.34
2023-02-16T22:56:19.878Z,81.62
2023-02-16T22:58:47.345Z,81.18
2023-02-16T23:01:16.637Z,81.36
2023-02-16T23:03:46.464Z,82.23
2023-02-16T23:06:25.128Z,82.38
2023-02-16T23:08:54.690Z,80.98
2023-02-16T23:11:22.006Z,82.20
2023-02-16T23:13:48.747Z,81.41
2023-02-16T23:16:17.880Z,82.02
2023-02-16T23:18:45.641Z,81.35
2023-02-16T23:21:21.411Z,80.24
2023-02-16T23:23:49.805Z,80.37
2023-02-16T23:26:17.467Z,81.21
2023-02-16T23:28:45.127Z,82.49
2023-02-16T23:31:12.311Z,81.67
2023-02-16T23:33:39.498Z,81.09
2023-02-16T23:36:06.807Z,81.55
2023-02-16T23:38:36.593Z,82.29
2023-02-16T23:41:06.689Z,82.02
2023-02-16T23:43:33.912Z,81.61
2023-02-16T23:46:01.101Z,82.17
2023-02-16T23:48:27.764Z,82.37
2023-02-16T23:50:54.908Z,83.22
2023-02-16T23:53:23.005Z,84.76
2023-02-16T23:56:09.346Z,85.77
2023-02-16T23:58:39.784Z,86.75
